AUA62W LDSP-LOWW
Flight info
| Callsign | AUA62W |
|---|---|
| Flight time | N/A |
| Altitude | 36000 |
| Route | SIRMI DCT RUDIK DCT OBUTI OBUTI2W |
| Aircraft | A320/M-SDE3FGHIRWY/LB1 |
Departure
| Time | 2026-05-06 15:48 |
|---|---|
| Airport | Split Saint Jerome Airport (LDSP) |
Arrival
| Time | N/A |
|---|---|
| Airport | Vienna International Airport (LOWW) |
| Time | Latitude | Longitude | Altitude | Speed | Heading |
|---|---|---|---|---|---|
| 2026-05-06 15:23 | 43.53695 | 16.29810 | 68 ft | 0 kts | 114° |
| 2026-05-06 15:42 | 43.53695 | 16.29811 | 68 ft | 1 kts | 114° |
| 2026-05-06 15:42 | 43.53703 | 16.29824 | 62 ft | 3 kts | 30° |
| 2026-05-06 15:42 | 43.53719 | 16.29789 | 63 ft | 6 kts | 273° |
| 2026-05-06 15:42 | 43.53709 | 16.29704 | 64 ft | 9 kts | 240° |
| 2026-05-06 15:43 | 43.53688 | 16.29664 | 66 ft | 0 kts | 233° |
| 2026-05-06 15:44 | 43.53687 | 16.29663 | 66 ft | 2 kts | 233° |
| 2026-05-06 15:44 | 43.53691 | 16.29572 | 66 ft | 15 kts | 295° |
| 2026-05-06 15:45 | 43.53675 | 16.29401 | 84 ft | 22 kts | 239° |
| 2026-05-06 15:45 | 43.53580 | 16.29230 | 80 ft | 23 kts | 232° |
| 2026-05-06 15:45 | 43.53481 | 16.29049 | 81 ft | 24 kts | 232° |
| 2026-05-06 15:45 | 43.53396 | 16.28895 | 83 ft | 18 kts | 232° |
| 2026-05-06 15:46 | 43.53328 | 16.28771 | 82 ft | 14 kts | 232° |
| 2026-05-06 15:46 | 43.53271 | 16.28670 | 82 ft | 14 kts | 232° |
| 2026-05-06 15:46 | 43.53220 | 16.28621 | 76 ft | 7 kts | 194° |
| 2026-05-06 15:46 | 43.53211 | 16.28588 | 75 ft | 3 kts | 320° |
| 2026-05-06 15:47 | 43.53228 | 16.28593 | 77 ft | 3 kts | 32° |
| 2026-05-06 15:47 | 43.53234 | 16.28603 | 74 ft | 0 kts | 53° |
| 2026-05-06 15:47 | 43.53247 | 16.28627 | 74 ft | 20 kts | 52° |
| 2026-05-06 15:48 | 43.53506 | 16.29093 | 81 ft | 100 kts | 52° |
| 2026-05-06 15:48 | 43.54060 | 16.30099 | 157 ft | 149 kts | 57° |
| 2026-05-06 15:48 | 43.54680 | 16.31231 | 942 ft | 151 kts | 56° |
| 2026-05-06 15:48 | 43.55332 | 16.32402 | 1852 ft | 152 kts | 64° |
| 2026-05-06 15:49 | 43.55629 | 16.33707 | 2609 ft | 139 kts | 104° |
| 2026-05-06 15:49 | 43.55243 | 16.34853 | 3331 ft | 132 kts | 135° |
| 2026-05-06 15:49 | 43.54438 | 16.35581 | 3827 ft | 149 kts | 156° |
| 2026-05-06 15:49 | 43.53447 | 16.36268 | 4265 ft | 170 kts | 154° |
| 2026-05-06 15:50 | 43.52389 | 16.37058 | 4941 ft | 174 kts | 154° |
| 2026-05-06 15:50 | 43.51296 | 16.37887 | 5508 ft | 184 kts | 155° |
| 2026-05-06 15:50 | 43.50163 | 16.38724 | 6237 ft | 185 kts | 156° |
| 2026-05-06 15:50 | 43.49021 | 16.39552 | 6952 ft | 186 kts | 158° |
| 2026-05-06 15:51 | 43.47875 | 16.40391 | 7609 ft | 187 kts | 156° |
| 2026-05-06 15:51 | 43.46671 | 16.41122 | 8124 ft | 193 kts | 177° |
| 2026-05-06 15:51 | 43.45413 | 16.40683 | 8687 ft | 192 kts | 215° |
| 2026-05-06 15:51 | 43.44462 | 16.39290 | 9073 ft | 212 kts | 240° |
| 2026-05-06 15:52 | 43.44247 | 16.37187 | 9328 ft | 245 kts | 279° |
| 2026-05-06 15:52 | 43.44727 | 16.35711 | 9576 ft | 269 kts | 303° |
| 2026-05-06 15:52 | 43.46273 | 16.34071 | 10101 ft | 297 kts | 335° |
| 2026-05-06 15:52 | 43.48387 | 16.33455 | 10522 ft | 325 kts | 353° |
| 2026-05-06 15:53 | 43.50722 | 16.33472 | 11041 ft | 344 kts | 1° |
| 2026-05-06 15:53 | 43.53129 | 16.33707 | 11861 ft | 350 kts | 1° |
| 2026-05-06 15:53 | 43.55574 | 16.33920 | 12752 ft | 354 kts | 360° |
| 2026-05-06 15:53 | 43.58047 | 16.34014 | 13660 ft | 357 kts | 357° |
| 2026-05-06 15:54 | 43.60543 | 16.33983 | 14416 ft | 361 kts | 355° |
| 2026-05-06 15:54 | 43.63066 | 16.33857 | 15123 ft | 365 kts | 354° |
| 2026-05-06 15:54 | 43.65621 | 16.33675 | 15846 ft | 369 kts | 353° |
| 2026-05-06 15:54 | 43.68206 | 16.33469 | 16547 ft | 374 kts | 353° |
| 2026-05-06 15:55 | 43.70822 | 16.33263 | 17227 ft | 379 kts | 353° |
| 2026-05-06 15:55 | 43.73469 | 16.33066 | 17942 ft | 384 kts | 353° |
| 2026-05-06 15:55 | 43.76152 | 16.32881 | 18595 ft | 388 kts | 353° |
| 2026-05-06 15:55 | 43.78863 | 16.32703 | 19247 ft | 391 kts | 353° |
| 2026-05-06 15:56 | 43.81595 | 16.32525 | 19914 ft | 394 kts | 353° |
| 2026-05-06 15:56 | 43.84339 | 16.32350 | 20602 ft | 396 kts | 353° |
| 2026-05-06 15:56 | 43.87095 | 16.32175 | 21300 ft | 398 kts | 353° |
| 2026-05-06 15:56 | 43.89865 | 16.31998 | 21997 ft | 400 kts | 353° |
| 2026-05-06 15:57 | 43.92652 | 16.31818 | 22674 ft | 403 kts | 352° |
| 2026-05-06 15:57 | 43.95465 | 16.31638 | 23343 ft | 405 kts | 352° |
| 2026-05-06 15:57 | 43.98287 | 16.31458 | 23907 ft | 408 kts | 352° |
| 2026-05-06 15:57 | 44.01137 | 16.31275 | 24417 ft | 411 kts | 352° |
| 2026-05-06 15:58 | 44.04008 | 16.31089 | 24894 ft | 414 kts | 352° |
| 2026-05-06 15:58 | 44.06898 | 16.30900 | 25351 ft | 418 kts | 352° |
| 2026-05-06 15:58 | 44.09812 | 16.30709 | 25808 ft | 421 kts | 352° |
| 2026-05-06 15:58 | 44.12752 | 16.30515 | 26279 ft | 424 kts | 352° |
| 2026-05-06 15:59 | 44.15711 | 16.30330 | 26748 ft | 428 kts | 352° |
| 2026-05-06 15:59 | 44.18701 | 16.30236 | 27196 ft | 432 kts | 354° |
| 2026-05-06 15:59 | 44.21715 | 16.30230 | 27645 ft | 435 kts | 354° |
| 2026-05-06 15:59 | 44.24752 | 16.30274 | 28066 ft | 438 kts | 355° |
| 2026-05-06 16:00 | 44.27806 | 16.30330 | 28475 ft | 440 kts | 355° |
| 2026-05-06 16:00 | 44.30876 | 16.30379 | 28866 ft | 443 kts | 354° |
| 2026-05-06 16:00 | 44.33971 | 16.30412 | 29261 ft | 445 kts | 354° |
| 2026-05-06 16:00 | 44.37076 | 16.30425 | 29644 ft | 448 kts | 354° |
| 2026-05-06 16:01 | 44.40198 | 16.30424 | 30029 ft | 450 kts | 354° |
| 2026-05-06 16:01 | 44.43336 | 16.30419 | 30360 ft | 452 kts | 354° |
| 2026-05-06 16:01 | 44.46496 | 16.30415 | 30677 ft | 455 kts | 354° |
| 2026-05-06 16:01 | 44.49668 | 16.30416 | 30975 ft | 457 kts | 354° |
| 2026-05-06 16:02 | 44.52859 | 16.30423 | 31235 ft | 459 kts | 354° |
| 2026-05-06 16:02 | 44.56066 | 16.30432 | 31500 ft | 462 kts | 354° |
| 2026-05-06 16:02 | 44.59282 | 16.30442 | 31785 ft | 464 kts | 354° |
| 2026-05-06 16:02 | 44.62510 | 16.30452 | 32188 ft | 463 kts | 354° |
| 2026-05-06 16:03 | 44.65727 | 16.30461 | 32619 ft | 462 kts | 354° |
| 2026-05-06 16:03 | 44.68938 | 16.30470 | 33023 ft | 461 kts | 354° |
| 2026-05-06 16:03 | 44.72145 | 16.30476 | 33439 ft | 460 kts | 354° |
| 2026-05-06 16:03 | 44.75344 | 16.30478 | 33873 ft | 459 kts | 354° |
| 2026-05-06 16:04 | 44.78530 | 16.30480 | 34228 ft | 458 kts | 355° |
| 2026-05-06 16:04 | 44.81715 | 16.30482 | 34569 ft | 458 kts | 355° |
| 2026-05-06 16:04 | 44.84904 | 16.30487 | 34854 ft | 458 kts | 355° |
| 2026-05-06 16:04 | 44.88089 | 16.30492 | 35160 ft | 458 kts | 355° |
| 2026-05-06 16:05 | 44.91278 | 16.30498 | 35481 ft | 458 kts | 355° |
| 2026-05-06 16:05 | 44.94459 | 16.30503 | 35750 ft | 458 kts | 355° |
| 2026-05-06 16:05 | 44.97648 | 16.30505 | 35916 ft | 457 kts | 355° |
| 2026-05-06 16:05 | 45.00807 | 16.30505 | 35939 ft | 452 kts | 355° |
| 2026-05-06 16:06 | 45.07078 | 16.30413 | 35938 ft | 450 kts | 354° |
| 2026-05-06 16:06 | 45.13328 | 16.30239 | 35934 ft | 449 kts | 354° |
| 2026-05-06 16:07 | 45.19580 | 16.30070 | 35926 ft | 450 kts | 355° |
| 2026-05-06 16:07 | 45.25840 | 16.29929 | 35930 ft | 450 kts | 355° |
| 2026-05-06 16:08 | 45.32099 | 16.29799 | 35923 ft | 450 kts | 355° |
| 2026-05-06 16:08 | 45.38359 | 16.29664 | 35922 ft | 450 kts | 355° |
| 2026-05-06 16:09 | 45.44614 | 16.29527 | 35916 ft | 449 kts | 355° |
| 2026-05-06 16:09 | 45.50865 | 16.29382 | 35910 ft | 449 kts | 355° |
| 2026-05-06 16:10 | 45.57122 | 16.29237 | 35906 ft | 450 kts | 355° |
| 2026-05-06 16:10 | 45.63383 | 16.29097 | 35910 ft | 450 kts | 355° |
| 2026-05-06 16:11 | 45.69640 | 16.28964 | 35909 ft | 450 kts | 355° |
| 2026-05-06 16:11 | 45.75894 | 16.28825 | 35914 ft | 449 kts | 355° |
| 2026-05-06 16:12 | 45.82145 | 16.28679 | 35915 ft | 449 kts | 355° |
| 2026-05-06 16:12 | 45.88388 | 16.28521 | 35918 ft | 448 kts | 355° |
| 2026-05-06 16:13 | 45.94626 | 16.28377 | 35918 ft | 448 kts | 355° |
| 2026-05-06 16:13 | 46.00859 | 16.28248 | 35916 ft | 448 kts | 355° |
| 2026-05-06 16:14 | 46.07094 | 16.28119 | 35779 ft | 449 kts | 355° |
| 2026-05-06 16:14 | 46.10213 | 16.28052 | 35527 ft | 448 kts | 355° |
| 2026-05-06 16:14 | 46.13335 | 16.27983 | 35275 ft | 449 kts | 355° |
| 2026-05-06 16:15 | 46.16459 | 16.27911 | 35026 ft | 450 kts | 355° |
| 2026-05-06 16:15 | 46.19593 | 16.27838 | 34781 ft | 451 kts | 355° |
| 2026-05-06 16:15 | 46.22739 | 16.27763 | 34542 ft | 452 kts | 355° |
| 2026-05-06 16:15 | 46.25882 | 16.27687 | 34296 ft | 452 kts | 355° |
| 2026-05-06 16:16 | 46.29029 | 16.27613 | 34056 ft | 452 kts | 355° |
| 2026-05-06 16:16 | 46.32176 | 16.27543 | 33810 ft | 451 kts | 355° |
| 2026-05-06 16:16 | 46.35309 | 16.27473 | 33530 ft | 450 kts | 355° |
| 2026-05-06 16:16 | 46.38417 | 16.27249 | 33260 ft | 445 kts | 348° |
| 2026-05-06 16:17 | 46.41463 | 16.26557 | 32988 ft | 442 kts | 346° |
| 2026-05-06 16:17 | 46.44484 | 16.25839 | 32726 ft | 440 kts | 346° |
| 2026-05-06 16:17 | 46.47496 | 16.25128 | 32462 ft | 438 kts | 346° |
| 2026-05-06 16:17 | 46.50499 | 16.24423 | 32194 ft | 436 kts | 346° |
| 2026-05-06 16:18 | 46.53488 | 16.23721 | 31944 ft | 434 kts | 346° |
| 2026-05-06 16:18 | 46.56458 | 16.23022 | 31675 ft | 432 kts | 346° |
| 2026-05-06 16:18 | 46.59414 | 16.22323 | 31407 ft | 428 kts | 346° |
| 2026-05-06 16:18 | 46.62340 | 16.21632 | 30918 ft | 424 kts | 346° |
| 2026-05-06 16:19 | 46.65245 | 16.20943 | 30403 ft | 422 kts | 346° |
| 2026-05-06 16:19 | 46.68130 | 16.20256 | 29889 ft | 419 kts | 346° |
| 2026-05-06 16:19 | 46.70997 | 16.19573 | 29359 ft | 415 kts | 346° |
| 2026-05-06 16:19 | 46.73829 | 16.18897 | 28878 ft | 411 kts | 346° |
| 2026-05-06 16:20 | 46.76631 | 16.18228 | 28413 ft | 406 kts | 346° |
| 2026-05-06 16:20 | 46.79410 | 16.17564 | 27947 ft | 402 kts | 346° |
| 2026-05-06 16:20 | 46.82162 | 16.16904 | 27505 ft | 399 kts | 346° |
| 2026-05-06 16:20 | 46.84885 | 16.16248 | 27074 ft | 395 kts | 346° |
| 2026-05-06 16:21 | 46.87588 | 16.15595 | 26631 ft | 392 kts | 346° |
| 2026-05-06 16:21 | 46.90260 | 16.14947 | 26206 ft | 388 kts | 346° |
| 2026-05-06 16:21 | 46.92911 | 16.14303 | 25785 ft | 384 kts | 346° |
| 2026-05-06 16:21 | 46.95544 | 16.13669 | 25338 ft | 382 kts | 347° |
| 2026-05-06 16:22 | 46.98159 | 16.13040 | 24894 ft | 380 kts | 347° |
| 2026-05-06 16:22 | 47.00759 | 16.12414 | 24435 ft | 378 kts | 347° |
| 2026-05-06 16:22 | 47.03353 | 16.11789 | 23973 ft | 377 kts | 347° |
| 2026-05-06 16:22 | 47.05933 | 16.11166 | 23506 ft | 376 kts | 347° |
| 2026-05-06 16:23 | 47.08509 | 16.10543 | 22972 ft | 375 kts | 347° |
| 2026-05-06 16:23 | 47.11076 | 16.09923 | 22493 ft | 372 kts | 347° |
| 2026-05-06 16:23 | 47.13619 | 16.09305 | 22034 ft | 370 kts | 347° |
| 2026-05-06 16:23 | 47.16153 | 16.08689 | 21573 ft | 368 kts | 347° |
| 2026-05-06 16:24 | 47.18669 | 16.08079 | 21117 ft | 365 kts | 347° |
| 2026-05-06 16:24 | 47.21169 | 16.07471 | 20658 ft | 364 kts | 347° |
| 2026-05-06 16:24 | 47.23656 | 16.06862 | 20220 ft | 362 kts | 347° |
| 2026-05-06 16:24 | 47.26141 | 16.06252 | 19769 ft | 361 kts | 347° |
| 2026-05-06 16:25 | 47.28611 | 16.05645 | 19329 ft | 360 kts | 347° |
| 2026-05-06 16:25 | 47.31074 | 16.05042 | 18889 ft | 358 kts | 347° |
| 2026-05-06 16:25 | 47.33534 | 16.04445 | 18464 ft | 357 kts | 347° |
| 2026-05-06 16:25 | 47.35988 | 16.03855 | 18000 ft | 357 kts | 348° |
| 2026-05-06 16:26 | 47.38474 | 16.03621 | 17590 ft | 358 kts | 356° |
| 2026-05-06 16:26 | 47.40952 | 16.03621 | 17284 ft | 354 kts | 356° |
| 2026-05-06 16:26 | 47.43411 | 16.03606 | 16956 ft | 353 kts | 356° |
| 2026-05-06 16:26 | 47.45859 | 16.03586 | 16630 ft | 352 kts | 356° |
| 2026-05-06 16:27 | 47.48302 | 16.03566 | 16309 ft | 350 kts | 356° |
| 2026-05-06 16:27 | 47.50729 | 16.03548 | 15980 ft | 348 kts | 356° |
| 2026-05-06 16:27 | 47.53151 | 16.03530 | 15656 ft | 347 kts | 356° |
| 2026-05-06 16:27 | 47.55555 | 16.03512 | 15343 ft | 345 kts | 356° |
| 2026-05-06 16:28 | 47.57990 | 16.03495 | 15012 ft | 344 kts | 356° |
| 2026-05-06 16:28 | 47.60349 | 16.03480 | 14695 ft | 343 kts | 356° |
| 2026-05-06 16:28 | 47.62758 | 16.03468 | 14374 ft | 341 kts | 356° |
| 2026-05-06 16:28 | 47.65098 | 16.03456 | 14062 ft | 340 kts | 356° |
| 2026-05-06 16:29 | 47.67486 | 16.03441 | 13741 ft | 338 kts | 356° |
| 2026-05-06 16:29 | 47.69799 | 16.03427 | 13415 ft | 335 kts | 356° |
| 2026-05-06 16:29 | 47.72155 | 16.03412 | 13096 ft | 334 kts | 356° |
| 2026-05-06 16:29 | 47.73690 | 16.03401 | 12898 ft | 333 kts | 356° |
| 2026-05-06 16:30 | 47.75999 | 16.03451 | 12569 ft | 332 kts | 3° |
| 2026-05-06 16:30 | 47.77498 | 16.03862 | 12333 ft | 331 kts | 10° |
| 2026-05-06 16:30 | 47.80493 | 16.04850 | 11813 ft | 328 kts | 11° |
| 2026-05-06 16:30 | 47.82714 | 16.05581 | 11435 ft | 326 kts | 9° |
| 2026-05-06 16:31 | 47.84915 | 16.06306 | 11067 ft | 324 kts | 10° |
| 2026-05-06 16:31 | 47.87103 | 16.07028 | 10692 ft | 321 kts | 11° |
| 2026-05-06 16:31 | 47.89272 | 16.07747 | 10317 ft | 318 kts | 10° |
| 2026-05-06 16:31 | 47.91423 | 16.08457 | 9960 ft | 315 kts | 10° |
| 2026-05-06 16:32 | 47.93558 | 16.09158 | 9597 ft | 313 kts | 10° |
| 2026-05-06 16:32 | 47.95684 | 16.09859 | 9201 ft | 311 kts | 11° |
| 2026-05-06 16:32 | 47.97789 | 16.10559 | 8811 ft | 309 kts | 10° |
| 2026-05-06 16:32 | 47.99874 | 16.11253 | 8429 ft | 306 kts | 11° |
| 2026-05-06 16:33 | 48.01950 | 16.11939 | 8047 ft | 304 kts | 10° |
| 2026-05-06 16:33 | 48.04010 | 16.12620 | 7669 ft | 302 kts | 10° |
| 2026-05-06 16:33 | 48.06052 | 16.13296 | 7299 ft | 299 kts | 10° |
| 2026-05-06 16:34 | 48.10067 | 16.14637 | 6567 ft | 288 kts | 11° |
| 2026-05-06 16:34 | 48.11998 | 16.15281 | 6203 ft | 280 kts | 11° |
| 2026-05-06 16:34 | 48.13868 | 16.15903 | 5828 ft | 272 kts | 11° |
| 2026-05-06 16:34 | 48.15687 | 16.16505 | 5519 ft | 264 kts | 11° |
| 2026-05-06 16:35 | 48.17448 | 16.17089 | 5269 ft | 255 kts | 11° |
| 2026-05-06 16:35 | 48.18581 | 16.17466 | 5104 ft | 251 kts | 11° |